createdAt,value
2023-03-15T00:01:28.603Z,25.12
2023-03-15T00:04:17.621Z,25.10
2023-03-15T00:07:06.838Z,25.06
2023-03-15T00:09:58.144Z,25.03
2023-03-15T00:12:46.835Z,25.03
2023-03-15T00:15:37.074Z,24.95
2023-03-15T00:18:25.797Z,25.02
2023-03-15T00:21:14.635Z,24.98
2023-03-15T00:24:03.621Z,25.04
2023-03-15T00:26:52.196Z,25.00
2023-03-15T00:29:40.767Z,24.98
2023-03-15T00:32:31.808Z,25.00
2023-03-15T00:35:20.546Z,24.98
2023-03-15T00:38:09.497Z,24.93
2023-03-15T00:40:58.522Z,24.93
2023-03-15T00:43:47.237Z,24.86
2023-03-15T00:46:36.088Z,24.89
2023-03-15T00:49:26.076Z,24.90
2023-03-15T00:52:14.888Z,24.93
2023-03-15T00:55:03.637Z,24.94
2023-03-15T00:57:53.741Z,24.90
2023-03-15T01:00:42.615Z,24.93
2023-03-15T01:03:31.265Z,24.89
2023-03-15T01:06:23.051Z,24.92
2023-03-15T01:09:11.885Z,24.92
2023-03-15T01:12:01.766Z,24.91
2023-03-15T01:14:50.399Z,24.86
2023-03-15T01:17:39.186Z,24.90
2023-03-15T01:20:28.498Z,24.87
2023-03-15T01:23:18.654Z,24.86
2023-03-15T01:26:09.870Z,24.88
2023-03-15T01:28:58.835Z,24.87
2023-03-15T01:31:47.616Z,24.80
2023-03-15T01:34:36.652Z,24.76
2023-03-15T01:37:25.229Z,24.80
2023-03-15T01:40:16.982Z,24.86
2023-03-15T01:43:19.272Z,24.81
2023-03-15T01:46:23.502Z,24.79
2023-03-15T01:49:13.826Z,24.78
2023-03-15T01:52:04.844Z,24.82
2023-03-15T01:54:55.759Z,24.84
2023-03-15T01:57:48.487Z,24.85
2023-03-15T02:00:37.180Z,24.87
2023-03-15T02:03:29.438Z,24.88
2023-03-15T02:06:19.849Z,24.88
2023-03-15T02:09:14.168Z,24.81
2023-03-15T02:12:03.896Z,24.87
2023-03-15T02:14:55.363Z,24.89
2023-03-15T02:17:47.439Z,24.86
2023-03-15T02:20:42.869Z,24.75
2023-03-15T02:23:32.214Z,24.79
2023-03-15T02:26:27.129Z,24.80
2023-03-15T02:29:17.434Z,24.87
2023-03-15T02:32:06.431Z,24.81
2023-03-15T02:34:55.448Z,24.75
2023-03-15T02:37:45.966Z,24.75
2023-03-15T02:40:34.643Z,24.76
2023-03-15T02:43:29.751Z,24.69
2023-03-15T02:46:21.214Z,24.74
2023-03-15T02:49:10.447Z,24.71
2023-03-15T02:51:59.044Z,24.73
2023-03-15T02:54:47.768Z,24.75
2023-03-15T02:57:37.327Z,24.68
2023-03-15T03:00:26.324Z,24.73
2023-03-15T03:03:18.359Z,24.81
2023-03-15T03:06:08.177Z,24.81
2023-03-15T03:08:56.766Z,24.78
2023-03-15T03:11:45.506Z,24.73
2023-03-15T03:14:36.048Z,24.80
2023-03-15T03:17:24.880Z,24.76
2023-03-15T03:20:15.973Z,24.75
2023-03-15T03:23:06.183Z,24.72
2023-03-15T03:25:55.016Z,24.69
2023-03-15T03:28:44.789Z,24.68
2023-03-15T03:31:34.505Z,24.72
2023-03-15T03:34:23.522Z,24.68
2023-03-15T03:37:13.621Z,24.65
2023-03-15T03:40:02.598Z,24.61
2023-03-15T03:42:53.284Z,24.67
2023-03-15T03:45:42.325Z,24.63
2023-03-15T03:48:31.393Z,24.61
2023-03-15T03:51:20.417Z,24.61
2023-03-15T03:54:10.475Z,24.62
2023-03-15T03:56:59.350Z,24.62
2023-03-15T03:59:48.028Z,24.59
2023-03-15T04:02:36.770Z,24.63
2023-03-15T04:05:26.260Z,24.62
2023-03-15T04:08:14.966Z,24.63
2023-03-15T04:11:05.035Z,24.59
2023-03-15T04:13:53.644Z,24.60
2023-03-15T04:16:42.791Z,24.63
2023-03-15T04:19:31.881Z,24.64
2023-03-15T04:22:20.489Z,24.65
2023-03-15T04:25:09.800Z,24.62
2023-03-15T04:27:59.876Z,24.66
2023-03-15T04:30:50.123Z,24.66
2023-03-15T04:33:38.778Z,24.58
2023-03-15T04:36:29.548Z,24.60
2023-03-15T04:39:18.223Z,24.62
2023-03-15T04:42:07.106Z,24.57
2023-03-15T04:44:57.418Z,24.62
2023-03-15T04:47:46.194Z,24.59
2023-03-15T04:50:34.926Z,24.67
2023-03-15T04:53:23.731Z,24.62
2023-03-15T04:56:12.361Z,24.59
2023-03-15T04:59:01.072Z,24.68
2023-03-15T05:01:52.544Z,24.69
2023-03-15T05:04:42.040Z,24.62
2023-03-15T05:07:32.520Z,24.67
2023-03-15T05:10:21.552Z,24.63
2023-03-15T05:13:10.182Z,24.62
2023-03-15T05:15:59.244Z,24.69
2023-03-15T05:18:49.320Z,24.72
2023-03-15T05:21:37.898Z,24.75
2023-03-15T05:24:26.743Z,24.93
2023-03-15T05:27:15.678Z,24.88
2023-03-15T05:30:05.852Z,24.93
2023-03-15T05:32:54.852Z,24.98
2023-03-15T05:35:46.260Z,24.91
2023-03-15T05:38:35.023Z,24.91
2023-03-15T05:41:24.012Z,24.91
2023-03-15T05:44:12.669Z,24.97
2023-03-15T05:47:01.715Z,24.95
2023-03-15T05:49:51.576Z,24.99
2023-03-15T05:52:41.641Z,24.93
2023-03-15T05:55:30.293Z,24.96
2023-03-15T05:58:18.818Z,25.04
2023-03-15T06:01:07.548Z,24.88
2023-03-15T06:04:02.803Z,24.99
2023-03-15T06:06:52.282Z,24.99
2023-03-15T06:09:42.666Z,24.99
2023-03-15T06:12:31.345Z,25.06
2023-03-15T06:15:20.570Z,25.22
2023-03-15T06:18:09.526Z,25.21
2023-03-15T06:20:58.195Z,25.23
2023-03-15T06:23:47.144Z,25.30
2023-03-15T06:26:37.124Z,25.35
2023-03-15T06:29:28.858Z,25.40
2023-03-15T06:32:21.501Z,25.41
2023-03-15T06:35:12.556Z,25.41
2023-03-15T06:38:01.185Z,25.19
2023-03-15T06:40:49.988Z,25.21
2023-03-15T06:43:40.001Z,25.10
2023-03-15T06:46:28.709Z,24.97
2023-03-15T06:49:17.384Z,24.96
2023-03-15T06:52:07.339Z,25.00
2023-03-15T06:54:56.025Z,24.95
2023-03-15T06:57:47.102Z,24.90
2023-03-15T07:00:37.256Z,24.89
2023-03-15T07:03:55.210Z,24.86
2023-03-15T07:06:43.920Z,24.89
2023-03-15T07:09:32.577Z,24.95
2023-03-15T07:12:21.286Z,24.94
2023-03-15T07:15:11.853Z,24.94
2023-03-15T07:18:02.389Z,25.04
2023-03-15T07:20:57.770Z,25.00
2023-03-15T07:23:46.487Z,25.03
2023-03-15T07:26:35.182Z,25.07
2023-03-15T07:29:24.373Z,25.10
2023-03-15T07:32:13.087Z,25.16
2023-03-15T07:35:03.133Z,25.10
2023-03-15T07:37:51.808Z,25.21
2023-03-15T07:40:40.756Z,25.10
2023-03-15T07:43:30.039Z,25.16
2023-03-15T07:46:18.716Z,25.10
2023-03-15T07:49:07.430Z,25.13
2023-03-15T07:51:57.894Z,25.14
2023-03-15T07:54:47.150Z,25.20
2023-03-15T07:57:35.784Z,25.20
2023-03-15T08:00:25.143Z,25.17
2023-03-15T08:03:13.876Z,25.15
2023-03-15T08:06:02.603Z,25.10
2023-03-15T08:08:52.668Z,25.13
2023-03-15T08:11:42.281Z,25.13
2023-03-15T08:14:32.553Z,25.19
2023-03-15T08:17:21.395Z,25.14
2023-03-15T08:20:14.896Z,25.14
2023-03-15T08:23:03.932Z,25.17
2023-03-15T08:25:53.989Z,25.09
2023-03-15T08:28:42.665Z,25.05
2023-03-15T08:31:31.455Z,25.04
2023-03-15T08:34:20.282Z,24.99
2023-03-15T08:37:09.043Z,24.96
2023-03-15T08:40:05.303Z,25.02
2023-03-15T08:42:55.569Z,25.03
2023-03-15T08:46:00.223Z,24.98
2023-03-15T08:48:49.432Z,25.06
2023-03-15T08:51:38.219Z,24.95
2023-03-15T08:54:27.492Z,24.96
2023-03-15T08:57:16.697Z,24.93
2023-03-15T09:00:09.320Z,24.88
2023-03-15T09:02:58.184Z,24.80
2023-03-15T09:05:46.873Z,24.85
2023-03-15T09:08:35.486Z,24.84
2023-03-15T09:11:24.629Z,24.76
2023-03-15T09:14:13.216Z,24.74
2023-03-15T09:17:03.268Z,24.71
2023-03-15T09:19:52.449Z,24.66
2023-03-15T09:22:41.141Z,24.62
2023-03-15T09:25:29.775Z,24.62
2023-03-15T09:28:18.391Z,24.65
2023-03-15T09:31:07.649Z,24.65
2023-03-15T09:33:58.617Z,24.65
2023-03-15T09:36:52.835Z,24.69
2023-03-15T09:39:41.564Z,24.68
2023-03-15T09:42:35.849Z,24.66
2023-03-15T09:45:29.585Z,24.66
2023-03-15T09:48:21.369Z,24.64
2023-03-15T09:51:15.661Z,24.65
2023-03-15T09:54:07.394Z,24.67
2023-03-15T09:57:00.742Z,24.63
2023-03-15T09:59:54.750Z,24.63
2023-03-15T10:02:47.859Z,24.63
2023-03-15T10:05:44.042Z,24.64
2023-03-15T10:08:34.337Z,24.61
2023-03-15T10:11:27.415Z,24.66
2023-03-15T10:14:26.451Z,24.64
2023-03-15T10:17:16.751Z,24.57
2023-03-15T10:20:09.738Z,24.65
2023-03-15T10:23:01.233Z,24.62
2023-03-15T10:25:52.791Z,24.58
2023-03-15T10:28:41.633Z,24.60
2023-03-15T10:31:44.200Z,24.63
2023-03-15T10:34:33.578Z,24.60
2023-03-15T10:37:23.712Z,24.62
2023-03-15T10:40:16.413Z,24.62
2023-03-15T10:43:16.898Z,24.64
2023-03-15T10:46:07.693Z,24.62
2023-03-15T10:49:00.027Z,24.59
2023-03-15T10:51:52.232Z,24.56
2023-03-15T10:54:46.445Z,24.59
2023-03-15T10:57:40.249Z,24.61
2023-03-15T11:00:33.770Z,24.66
2023-03-15T11:03:23.911Z,24.64
2023-03-15T11:06:23.764Z,24.65
2023-03-15T11:09:14.497Z,24.66
2023-03-15T11:12:05.523Z,24.64
2023-03-15T11:14:59.406Z,24.65
2023-03-15T11:17:51.112Z,24.62
2023-03-15T11:20:42.186Z,24.65
2023-03-15T11:23:34.570Z,24.62
2023-03-15T11:26:33.144Z,24.64
2023-03-15T11:29:24.962Z,24.64
2023-03-15T11:32:15.439Z,24.61
2023-03-15T11:35:09.909Z,24.60
2023-03-15T11:38:13.024Z,24.61
2023-03-15T11:41:07.385Z,24.61
2023-03-15T11:44:05.553Z,24.63
2023-03-15T11:46:57.150Z,24.67
2023-03-15T11:49:50.886Z,24.67
2023-03-15T11:52:41.272Z,24.66
2023-03-15T11:55:30.796Z,24.61
2023-03-15T11:58:31.117Z,24.58
2023-03-15T12:01:27.571Z,24.61
2023-03-15T12:04:52.769Z,24.63
2023-03-15T12:08:01.070Z,24.64
2023-03-15T12:10:51.716Z,24.62
2023-03-15T12:13:40.755Z,24.64
2023-03-15T12:16:31.511Z,24.70
2023-03-15T12:19:22.971Z,24.71
2023-03-15T12:22:17.501Z,24.65
2023-03-15T12:25:14.237Z,24.67
2023-03-15T12:28:08.794Z,24.64
2023-03-15T12:31:01.834Z,24.64
2023-03-15T12:33:52.771Z,24.68
2023-03-15T12:36:43.566Z,24.75
2023-03-15T12:39:45.048Z,24.78
2023-03-15T12:43:10.523Z,24.80
2023-03-15T12:46:00.557Z,24.76
2023-03-15T12:49:07.626Z,24.74
2023-03-15T12:51:59.790Z,24.71
2023-03-15T12:54:52.053Z,24.75
2023-03-15T12:57:41.991Z,24.75
2023-03-15T13:00:33.333Z,24.73
2023-03-15T13:03:25.849Z,24.75
2023-03-15T13:06:21.337Z,24.79
2023-03-15T13:09:17.755Z,24.85
2023-03-15T13:12:11.832Z,24.86
2023-03-15T13:15:04.951Z,24.84
2023-03-15T13:17:58.897Z,24.87
2023-03-15T13:20:58.657Z,24.86
2023-03-15T13:23:53.457Z,24.91
2023-03-15T13:26:51.061Z,24.93
2023-03-15T13:29:41.903Z,24.95
2023-03-15T13:32:30.654Z,24.99
2023-03-15T13:35:19.421Z,25.00
2023-03-15T13:38:25.468Z,25.00
2023-03-15T13:41:20.489Z,25.04
2023-03-15T13:44:20.234Z,25.09
2023-03-15T13:47:09.398Z,25.11
2023-03-15T13:49:58.397Z,25.14
2023-03-15T13:52:47.847Z,25.11
2023-03-15T13:55:38.040Z,25.14
2023-03-15T13:58:30.248Z,25.14
2023-03-15T14:01:19.487Z,25.14
2023-03-15T14:04:11.159Z,25.13
2023-03-15T14:07:15.047Z,25.14
2023-03-15T14:10:21.237Z,25.13
2023-03-15T14:13:26.394Z,25.16
2023-03-15T14:16:17.652Z,25.25
2023-03-15T14:19:24.668Z,25.27
2023-03-15T14:22:16.526Z,25.33
2023-03-15T14:25:07.229Z,25.38
2023-03-15T14:27:56.061Z,25.35
2023-03-15T14:30:53.847Z,25.42
2023-03-15T14:33:43.727Z,25.39
2023-03-15T14:36:35.444Z,25.35
2023-03-15T14:39:27.872Z,25.38
2023-03-15T14:42:16.551Z,25.52
2023-03-15T14:45:05.845Z,25.53
2023-03-15T14:47:59.224Z,25.63
2023-03-15T14:50:49.274Z,25.67
2023-03-15T14:53:39.047Z,25.53
2023-03-15T14:56:28.001Z,25.60
2023-03-15T14:59:16.672Z,25.69
2023-03-15T15:02:06.532Z,25.72
2023-03-15T15:04:57.856Z,25.58
2023-03-15T15:07:46.862Z,25.55
2023-03-15T15:10:36.913Z,25.57
2023-03-15T15:13:27.146Z,25.54
2023-03-15T15:16:16.277Z,25.52
2023-03-15T15:19:05.219Z,25.47
2023-03-15T15:21:55.660Z,25.49
2023-03-15T15:24:45.679Z,25.48
2023-03-15T15:27:34.645Z,25.52
2023-03-15T15:30:28.393Z,25.54
2023-03-15T15:33:17.396Z,25.75
2023-03-15T15:36:12.399Z,26.03
2023-03-15T15:39:07.201Z,26.05
2023-03-15T15:41:56.205Z,26.03
2023-03-15T15:44:46.556Z,26.09
2023-03-15T15:47:35.395Z,25.99
2023-03-15T15:50:24.014Z,25.89
2023-03-15T15:53:14.547Z,25.89
2023-03-15T15:56:06.063Z,25.77
2023-03-15T15:58:55.078Z,25.83
2023-03-15T16:01:58.833Z,25.82
2023-03-15T16:04:51.085Z,25.69
2023-03-15T16:07:40.215Z,25.66
2023-03-15T16:10:38.212Z,25.71
2023-03-15T16:13:28.582Z,25.68
2023-03-15T16:16:18.766Z,25.59
2023-03-15T16:19:07.379Z,25.56
2023-03-15T16:21:55.977Z,25.51
2023-03-15T16:24:46.901Z,25.63
2023-03-15T16:27:35.505Z,25.74
2023-03-15T16:30:27.887Z,25.58
2023-03-15T16:33:18.199Z,25.47
2023-03-15T16:36:07.595Z,25.43
2023-03-15T16:38:57.301Z,25.46
2023-03-15T16:41:46.185Z,25.39
2023-03-15T16:44:34.812Z,25.38
2023-03-15T16:47:25.160Z,25.33
2023-03-15T16:50:14.249Z,25.30
2023-03-15T16:53:05.233Z,25.30
2023-03-15T16:55:54.194Z,25.31
2023-03-15T16:58:42.992Z,25.28
2023-03-15T17:01:33.964Z,25.25
2023-03-15T17:04:24.019Z,25.26
2023-03-15T17:07:14.500Z,25.22
2023-03-15T17:10:06.553Z,25.20
2023-03-15T17:12:55.752Z,25.21
2023-03-15T17:15:44.587Z,25.22
2023-03-15T17:18:34.339Z,25.22
2023-03-15T17:21:25.883Z,25.21
2023-03-15T17:24:15.478Z,25.27
2023-03-15T17:27:05.275Z,25.30
2023-03-15T17:29:53.894Z,25.19
2023-03-15T17:32:42.663Z,25.19
2023-03-15T17:35:33.950Z,25.19
2023-03-15T17:38:32.919Z,25.20
2023-03-15T17:41:23.437Z,25.18
2023-03-15T17:44:12.702Z,25.21
2023-03-15T17:47:02.872Z,25.12
2023-03-15T17:49:52.822Z,25.12
2023-03-15T17:52:42.198Z,25.15
2023-03-15T17:55:35.221Z,25.17
2023-03-15T17:58:26.588Z,25.16
2023-03-15T18:01:17.083Z,25.17
2023-03-15T18:04:08.077Z,25.20
2023-03-15T18:06:57.549Z,25.21
2023-03-15T18:09:46.153Z,25.17
2023-03-15T18:12:36.264Z,25.32
2023-03-15T18:15:25.202Z,25.37
2023-03-15T18:18:13.917Z,25.34
2023-03-15T18:21:02.625Z,25.37
2023-03-15T18:23:51.399Z,25.37
2023-03-15T18:26:40.072Z,25.46
2023-03-15T18:29:29.988Z,25.47
2023-03-15T18:32:18.676Z,25.43
2023-03-15T18:35:08.881Z,25.52
2023-03-15T18:37:57.893Z,25.43
2023-03-15T18:40:47.213Z,25.43
2023-03-15T18:43:36.788Z,25.36
2023-03-15T18:46:27.689Z,25.31
2023-03-15T18:49:19.112Z,25.27
2023-03-15T18:52:07.821Z,25.34
2023-03-15T18:54:57.003Z,25.35
2023-03-15T18:57:46.289Z,25.40
2023-03-15T19:00:36.195Z,25.50
2023-03-15T19:03:26.223Z,25.54
2023-03-15T19:06:19.648Z,25.64
2023-03-15T19:09:08.559Z,25.57
2023-03-15T19:11:57.210Z,25.60
2023-03-15T19:14:45.862Z,25.46
2023-03-15T19:17:34.440Z,25.44
2023-03-15T19:20:26.669Z,25.46
2023-03-15T19:23:15.413Z,25.53
2023-03-15T19:26:04.094Z,25.58
2023-03-15T19:28:53.293Z,25.56
2023-03-15T19:31:41.958Z,25.55
2023-03-15T19:34:31.804Z,25.53
2023-03-15T19:37:21.842Z,25.49
2023-03-15T19:40:12.398Z,25.47
2023-03-15T19:43:03.936Z,25.54
2023-03-15T19:45:52.605Z,25.47
2023-03-15T19:48:41.467Z,25.54
2023-03-15T19:51:30.334Z,25.46
2023-03-15T19:54:20.414Z,25.55
2023-03-15T19:57:09.186Z,25.54
2023-03-15T19:59:57.901Z,25.62
2023-03-15T20:02:46.985Z,25.53
2023-03-15T20:05:37.221Z,25.53
2023-03-15T20:08:26.485Z,25.54
2023-03-15T20:11:21.147Z,25.54
2023-03-15T20:14:09.933Z,25.59
2023-03-15T20:16:58.613Z,25.60
2023-03-15T20:19:47.499Z,25.55
2023-03-15T20:22:36.071Z,25.55
2023-03-15T20:25:24.795Z,25.63
2023-03-15T20:28:15.125Z,25.57
2023-03-15T20:31:08.071Z,25.62
2023-03-15T20:33:56.796Z,25.60
2023-03-15T20:36:45.568Z,25.62
2023-03-15T20:39:34.909Z,25.57
2023-03-15T20:42:24.574Z,25.59
2023-03-15T20:45:15.161Z,25.57
2023-03-15T20:48:03.786Z,25.67
2023-03-15T20:50:53.070Z,25.68
2023-03-15T20:53:41.698Z,25.66
2023-03-15T20:56:30.357Z,25.70
2023-03-15T20:59:19.010Z,25.65
2023-03-15T21:02:11.690Z,25.68
2023-03-15T21:05:00.299Z,25.66
2023-03-15T21:07:48.977Z,25.66
2023-03-15T21:10:38.048Z,25.77
2023-03-15T21:13:26.787Z,25.71
2023-03-15T21:16:15.821Z,25.69
2023-03-15T21:19:05.858Z,25.73
2023-03-15T21:21:56.703Z,25.70
2023-03-15T21:24:55.275Z,25.70
2023-03-15T21:27:44.823Z,25.68
2023-03-15T21:30:33.495Z,25.67
2023-03-15T21:33:22.546Z,25.67
2023-03-15T21:36:12.655Z,25.69
2023-03-15T21:39:01.522Z,25.70
2023-03-15T21:41:50.733Z,25.73
2023-03-15T21:44:39.381Z,25.74
2023-03-15T21:47:28.233Z,25.66
2023-03-15T21:50:17.609Z,25.73
2023-03-15T21:53:07.937Z,25.73
2023-03-15T21:55:57.817Z,25.76
2023-03-15T21:58:46.609Z,25.75
2023-03-15T22:01:35.256Z,25.80
2023-03-15T22:04:24.553Z,25.80
2023-03-15T22:07:13.686Z,25.70
2023-03-15T22:10:04.036Z,25.86
2023-03-15T22:12:54.485Z,25.79
2023-03-15T22:15:43.518Z,25.70
2023-03-15T22:18:33.690Z,25.77
2023-03-15T22:21:22.569Z,25.76
2023-03-15T22:24:11.553Z,25.73
2023-03-15T22:27:01.525Z,25.70
2023-03-15T22:29:52.491Z,25.71
2023-03-15T22:32:45.294Z,25.71
2023-03-15T22:35:35.187Z,25.72
2023-03-15T22:38:27.370Z,25.63
2023-03-15T22:41:15.993Z,25.58
2023-03-15T22:44:06.323Z,25.53
2023-03-15T22:46:55.203Z,25.64
2023-03-15T22:49:44.002Z,25.64
2023-03-15T22:52:32.628Z,25.62
2023-03-15T22:55:21.669Z,25.59
2023-03-15T22:58:12.296Z,25.60
2023-03-15T23:01:02.548Z,25.61
2023-03-15T23:03:51.257Z,25.59
2023-03-15T23:06:39.881Z,25.62
2023-03-15T23:09:28.645Z,25.59
2023-03-15T23:12:35.269Z,25.57
2023-03-15T23:15:24.372Z,25.47
2023-03-15T23:18:15.164Z,25.43
2023-03-15T23:21:08.568Z,25.40
2023-03-15T23:24:00.147Z,25.44
2023-03-15T23:26:48.985Z,25.47
2023-03-15T23:29:52.878Z,25.54
2023-03-15T23:32:42.507Z,25.53
2023-03-15T23:35:33.771Z,25.57
2023-03-15T23:38:22.985Z,25.52
2023-03-15T23:41:14.808Z,25.55
2023-03-15T23:44:04.290Z,25.57
2023-03-15T23:46:54.785Z,25.58
2023-03-15T23:49:46.137Z,25.49
2023-03-15T23:52:38.438Z,25.48
2023-03-15T23:55:28.704Z,25.48
2023-03-15T23:58:18.485Z,25.51
